KBPC

Pampa

Pampa, Texas, USA
METAR KBPC 210355Z AUTO 08003KT 7SM CLR 18/10 A3019 RMK AO2
Observed Flight Rules
Aug-21 @ 03:55 UTC (14 minutes ago) Visual Flight Rules
Wind Visibility Clouds
80° at 3 knots 7 miles
  • Clear skies
Temperatures Readings
Current 18°C / 64°F
Dewpoint 10°C / 50°F
Humidity 60%
Altimeter 30.19" Hg
Pressure 1022 hPa
Elevation 845
METAR KBPC 210355Z AUTO 08003KT 7SM CLR 18/10 A3019 RMK AO2
Observed Flight Rules
Aug-21 @ 03:55 UTC
(14 minutes ago)
VFR
Wind Visibility
80° at 3 knots 7 miles
Clouds
  • Clear skies
Temperature Dewpoint
18°C / 64°F 10°C / 50°F
Humidity Altimeter Pressure
60% 30.19" Hg 1022 hPa